sensor_id;sensor_type;location;lat;lon;timestamp;P1;durP1;ratioP1;P2;durP2;ratioP2
35330;SDS011;21441;52.190;20.910;2024-01-27T00:00:57;8.23;;;4.95;;
35330;SDS011;21441;52.190;20.910;2024-01-27T00:03:44;8.57;;;4.00;;
35330;SDS011;21441;52.190;20.910;2024-01-27T00:06:11;6.28;;;2.83;;
35330;SDS011;21441;52.190;20.910;2024-01-27T00:08:38;5.80;;;2.80;;
35330;SDS011;21441;52.190;20.910;2024-01-27T00:11:05;8.63;;;2.70;;
35330;SDS011;21441;52.190;20.910;2024-01-27T00:13:33;6.80;;;2.15;;
35330;SDS011;21441;52.190;20.910;2024-01-27T00:16:01;7.18;;;2.17;;
35330;SDS011;21441;52.190;20.910;2024-01-27T00:18:29;2.22;;;1.50;;
35330;SDS011;21441;52.190;20.910;2024-01-27T00:20:56;5.18;;;1.80;;
35330;SDS011;21441;52.190;20.910;2024-01-27T00:23:23;5.18;;;1.58;;
35330;SDS011;21441;52.190;20.910;2024-01-27T00:25:50;7.53;;;1.88;;
35330;SDS011;21441;52.190;20.910;2024-01-27T00:28:18;6.28;;;1.67;;
35330;SDS011;21441;52.190;20.910;2024-01-27T00:30:44;4.75;;;1.70;;
35330;SDS011;21441;52.190;20.910;2024-01-27T00:33:13;3.42;;;1.83;;
35330;SDS011;21441;52.190;20.910;2024-01-27T00:35:40;5.35;;;1.90;;
35330;SDS011;21441;52.190;20.910;2024-01-27T00:38:07;4.53;;;1.55;;
35330;SDS011;21441;52.190;20.910;2024-01-27T00:40:34;3.65;;;1.25;;
35330;SDS011;21441;52.190;20.910;2024-01-27T00:43:02;5.25;;;1.60;;
35330;SDS011;21441;52.190;20.910;2024-01-27T00:45:29;6.78;;;1.67;;
35330;SDS011;21441;52.190;20.910;2024-01-27T00:47:57;4.30;;;1.77;;
35330;SDS011;21441;52.190;20.910;2024-01-27T00:50:26;7.22;;;1.98;;
35330;SDS011;21441;52.190;20.910;2024-01-27T00:52:53;10.25;;;1.83;;
35330;SDS011;21441;52.190;20.910;2024-01-27T00:55:20;7.97;;;2.72;;
35330;SDS011;21441;52.190;20.910;2024-01-27T00:57:47;6.47;;;1.55;;
35330;SDS011;21441;52.190;20.910;2024-01-27T01:00:14;6.40;;;1.63;;
35330;SDS011;21441;52.190;20.910;2024-01-27T01:02:42;6.40;;;1.70;;
35330;SDS011;21441;52.190;20.910;2024-01-27T01:05:09;6.43;;;2.10;;
35330;SDS011;21441;52.190;20.910;2024-01-27T01:07:38;6.90;;;1.75;;
35330;SDS011;21441;52.190;20.910;2024-01-27T01:10:05;10.98;;;2.70;;
35330;SDS011;21441;52.190;20.910;2024-01-27T01:12:33;7.93;;;1.70;;
35330;SDS011;21441;52.190;20.910;2024-01-27T01:15:00;9.77;;;2.00;;
35330;SDS011;21441;52.190;20.910;2024-01-27T01:17:28;6.15;;;1.50;;
35330;SDS011;21441;52.190;20.910;2024-01-27T01:19:55;6.20;;;1.88;;
35330;SDS011;21441;52.190;20.910;2024-01-27T01:22:22;5.80;;;1.95;;
35330;SDS011;21441;52.190;20.910;2024-01-27T01:24:50;10.55;;;2.92;;
35330;SDS011;21441;52.190;20.910;2024-01-27T01:27:16;5.60;;;1.65;;
35330;SDS011;21441;52.190;20.910;2024-01-27T01:29:44;6.55;;;2.30;;
35330;SDS011;21441;52.190;20.910;2024-01-27T01:32:11;6.20;;;2.05;;
35330;SDS011;21441;52.190;20.910;2024-01-27T01:34:38;8.75;;;1.75;;
35330;SDS011;21441;52.190;20.910;2024-01-27T01:37:05;8.55;;;2.20;;
35330;SDS011;21441;52.190;20.910;2024-01-27T01:39:32;9.60;;;2.55;;
35330;SDS011;21441;52.190;20.910;2024-01-27T01:42:01;8.95;;;2.17;;
35330;SDS011;21441;52.190;20.910;2024-01-27T01:44:29;9.43;;;1.83;;
35330;SDS011;21441;52.190;20.910;2024-01-27T01:46:57;8.93;;;2.03;;
35330;SDS011;21441;52.190;20.910;2024-01-27T01:49:24;13.55;;;2.28;;
35330;SDS011;21441;52.190;20.910;2024-01-27T01:51:52;6.43;;;1.50;;
35330;SDS011;21441;52.190;20.910;2024-01-27T01:54:19;6.53;;;1.90;;
35330;SDS011;21441;52.190;20.910;2024-01-27T01:56:48;11.32;;;2.38;;
35330;SDS011;21441;52.190;20.910;2024-01-27T01:59:17;10.77;;;2.60;;
35330;SDS011;21441;52.190;20.910;2024-01-27T02:01:44;9.20;;;2.28;;
35330;SDS011;21441;52.190;20.910;2024-01-27T02:04:11;9.07;;;2.70;;
35330;SDS011;21441;52.190;20.910;2024-01-27T02:06:38;10.25;;;2.50;;
35330;SDS011;21441;52.190;20.910;2024-01-27T02:09:04;11.13;;;2.45;;
35330;SDS011;21441;52.190;20.910;2024-01-27T02:11:32;15.90;;;3.70;;
35330;SDS011;21441;52.190;20.910;2024-01-27T02:13:59;9.15;;;2.53;;
35330;SDS011;21441;52.190;20.910;2024-01-27T02:16:27;7.90;;;3.22;;
35330;SDS011;21441;52.190;20.910;2024-01-27T02:18:54;12.32;;;3.13;;
35330;SDS011;21441;52.190;20.910;2024-01-27T02:21:22;8.00;;;3.38;;
35330;SDS011;21441;52.190;20.910;2024-01-27T02:23:49;5.55;;;2.03;;
35330;SDS011;21441;52.190;20.910;2024-01-27T02:26:17;6.00;;;2.20;;
35330;SDS011;21441;52.190;20.910;2024-01-27T02:28:45;6.80;;;2.35;;
35330;SDS011;21441;52.190;20.910;2024-01-27T02:31:12;14.95;;;2.95;;
35330;SDS011;21441;52.190;20.910;2024-01-27T02:33:39;10.45;;;2.95;;
35330;SDS011;21441;52.190;20.910;2024-01-27T02:36:07;12.52;;;2.58;;
35330;SDS011;21441;52.190;20.910;2024-01-27T02:38:34;12.35;;;2.72;;
35330;SDS011;21441;52.190;20.910;2024-01-27T02:41:01;10.20;;;2.20;;
35330;SDS011;21441;52.190;20.910;2024-01-27T02:43:29;11.07;;;2.17;;
35330;SDS011;21441;52.190;20.910;2024-01-27T02:45:56;8.57;;;1.88;;
35330;SDS011;21441;52.190;20.910;2024-01-27T02:48:23;6.78;;;3.08;;
35330;SDS011;21441;52.190;20.910;2024-01-27T02:50:50;11.27;;;2.13;;
35330;SDS011;21441;52.190;20.910;2024-01-27T02:53:17;11.80;;;3.75;;
35330;SDS011;21441;52.190;20.910;2024-01-27T02:55:44;8.88;;;3.20;;
35330;SDS011;21441;52.190;20.910;2024-01-27T02:58:12;13.90;;;2.63;;
35330;SDS011;21441;52.190;20.910;2024-01-27T03:00:39;10.35;;;3.22;;
35330;SDS011;21441;52.190;20.910;2024-01-27T03:03:06;8.82;;;2.67;;
35330;SDS011;21441;52.190;20.910;2024-01-27T03:05:33;11.73;;;3.03;;
35330;SDS011;21441;52.190;20.910;2024-01-27T03:08:00;10.48;;;2.85;;
35330;SDS011;21441;52.190;20.910;2024-01-27T03:10:27;9.88;;;2.38;;
35330;SDS011;21441;52.190;20.910;2024-01-27T03:12:55;9.95;;;3.17;;
35330;SDS011;21441;52.190;20.910;2024-01-27T03:15:22;8.43;;;3.00;;
35330;SDS011;21441;52.190;20.910;2024-01-27T03:17:50;15.32;;;3.67;;
35330;SDS011;21441;52.190;20.910;2024-01-27T03:20:17;9.70;;;2.88;;
35330;SDS011;21441;52.190;20.910;2024-01-27T03:22:45;10.38;;;2.70;;
35330;SDS011;21441;52.190;20.910;2024-01-27T03:25:12;13.98;;;3.65;;
35330;SDS011;21441;52.190;20.910;2024-01-27T03:27:39;10.48;;;2.38;;
35330;SDS011;21441;52.190;20.910;2024-01-27T03:30:06;14.45;;;3.92;;
35330;SDS011;21441;52.190;20.910;2024-01-27T03:32:35;10.65;;;2.38;;
35330;SDS011;21441;52.190;20.910;2024-01-27T03:35:04;8.88;;;2.58;;
35330;SDS011;21441;52.190;20.910;2024-01-27T03:37:31;11.83;;;4.17;;
35330;SDS011;21441;52.190;20.910;2024-01-27T03:39:58;9.85;;;3.30;;
35330;SDS011;21441;52.190;20.910;2024-01-27T03:42:25;10.75;;;3.70;;
35330;SDS011;21441;52.190;20.910;2024-01-27T03:44:53;12.27;;;2.65;;
35330;SDS011;21441;52.190;20.910;2024-01-27T03:47:20;10.55;;;3.08;;
35330;SDS011;21441;52.190;20.910;2024-01-27T03:49:47;14.70;;;2.80;;
35330;SDS011;21441;52.190;20.910;2024-01-27T03:52:15;13.70;;;2.92;;
35330;SDS011;21441;52.190;20.910;2024-01-27T03:54:42;8.65;;;3.47;;
35330;SDS011;21441;52.190;20.910;2024-01-27T03:57:09;18.15;;;5.05;;
35330;SDS011;21441;52.190;20.910;2024-01-27T03:59:36;13.52;;;3.63;;
35330;SDS011;21441;52.190;20.910;2024-01-27T04:02:03;7.93;;;2.78;;
35330;SDS011;21441;52.190;20.910;2024-01-27T04:04:30;10.45;;;2.78;;
35330;SDS011;21441;52.190;20.910;2024-01-27T04:06:58;9.63;;;3.22;;
35330;SDS011;21441;52.190;20.910;2024-01-27T04:09:27;6.85;;;2.03;;
35330;SDS011;21441;52.190;20.910;2024-01-27T04:11:55;8.77;;;2.88;;
35330;SDS011;21441;52.190;20.910;2024-01-27T04:14:22;13.13;;;2.97;;
35330;SDS011;21441;52.190;20.910;2024-01-27T04:16:49;12.18;;;3.90;;
35330;SDS011;21441;52.190;20.910;2024-01-27T04:19:16;11.50;;;2.70;;
35330;SDS011;21441;52.190;20.910;2024-01-27T04:21:43;9.73;;;2.85;;
35330;SDS011;21441;52.190;20.910;2024-01-27T04:24:10;14.93;;;3.85;;
35330;SDS011;21441;52.190;20.910;2024-01-27T04:26:39;15.73;;;3.63;;
35330;SDS011;21441;52.190;20.910;2024-01-27T04:29:05;7.20;;;2.78;;
35330;SDS011;21441;52.190;20.910;2024-01-27T04:31:38;15.18;;;3.28;;
35330;SDS011;21441;52.190;20.910;2024-01-27T04:34:06;11.63;;;4.22;;
35330;SDS011;21441;52.190;20.910;2024-01-27T04:36:33;10.02;;;3.45;;
35330;SDS011;21441;52.190;20.910;2024-01-27T04:39:00;10.95;;;3.10;;
35330;SDS011;21441;52.190;20.910;2024-01-27T04:41:27;12.57;;;3.53;;
35330;SDS011;21441;52.190;20.910;2024-01-27T04:43:56;12.57;;;3.35;;
35330;SDS011;21441;52.190;20.910;2024-01-27T04:46:24;15.32;;;3.65;;
35330;SDS011;21441;52.190;20.910;2024-01-27T04:48:51;11.70;;;4.18;;
35330;SDS011;21441;52.190;20.910;2024-01-27T04:51:18;7.30;;;3.05;;
35330;SDS011;21441;52.190;20.910;2024-01-27T04:53:45;12.50;;;3.00;;
35330;SDS011;21441;52.190;20.910;2024-01-27T04:56:13;11.80;;;3.38;;
35330;SDS011;21441;52.190;20.910;2024-01-27T04:58:39;16.83;;;3.92;;
35330;SDS011;21441;52.190;20.910;2024-01-27T05:01:08;9.93;;;3.08;;
35330;SDS011;21441;52.190;20.910;2024-01-27T05:03:35;10.13;;;3.15;;
35330;SDS011;21441;52.190;20.910;2024-01-27T05:06:02;13.75;;;3.03;;
35330;SDS011;21441;52.190;20.910;2024-01-27T05:08:29;15.82;;;3.83;;
35330;SDS011;21441;52.190;20.910;2024-01-27T05:10:57;12.02;;;2.97;;
35330;SDS011;21441;52.190;20.910;2024-01-27T05:13:24;12.00;;;2.65;;
35330;SDS011;21441;52.190;20.910;2024-01-27T05:15:51;7.60;;;3.08;;
35330;SDS011;21441;52.190;20.910;2024-01-27T05:18:19;10.10;;;4.22;;
35330;SDS011;21441;52.190;20.910;2024-01-27T05:20:46;11.65;;;2.83;;
35330;SDS011;21441;52.190;20.910;2024-01-27T05:23:13;12.95;;;4.13;;
35330;SDS011;21441;52.190;20.910;2024-01-27T05:25:40;11.93;;;2.90;;
35330;SDS011;21441;52.190;20.910;2024-01-27T05:28:07;9.68;;;3.88;;
35330;SDS011;21441;52.190;20.910;2024-01-27T05:30:35;10.20;;;3.08;;
35330;SDS011;21441;52.190;20.910;2024-01-27T05:33:02;13.38;;;3.22;;
35330;SDS011;21441;52.190;20.910;2024-01-27T05:35:31;14.90;;;3.08;;
35330;SDS011;21441;52.190;20.910;2024-01-27T05:37:58;13.88;;;3.53;;
35330;SDS011;21441;52.190;20.910;2024-01-27T05:40:25;9.05;;;2.90;;
35330;SDS011;21441;52.190;20.910;2024-01-27T05:42:52;11.65;;;3.22;;
35330;SDS011;21441;52.190;20.910;2024-01-27T05:45:20;10.50;;;3.60;;
35330;SDS011;21441;52.190;20.910;2024-01-27T05:47:48;8.27;;;3.60;;
35330;SDS011;21441;52.190;20.910;2024-01-27T05:50:16;8.73;;;2.85;;
35330;SDS011;21441;52.190;20.910;2024-01-27T05:52:44;11.90;;;3.50;;
35330;SDS011;21441;52.190;20.910;2024-01-27T05:55:12;12.45;;;3.88;;
35330;SDS011;21441;52.190;20.910;2024-01-27T05:57:39;10.88;;;3.42;;
35330;SDS011;21441;52.190;20.910;2024-01-27T06:00:06;9.38;;;3.38;;
35330;SDS011;21441;52.190;20.910;2024-01-27T06:02:34;11.30;;;2.95;;
35330;SDS011;21441;52.190;20.910;2024-01-27T06:05:02;14.60;;;3.60;;
35330;SDS011;21441;52.190;20.910;2024-01-27T06:07:29;10.40;;;2.92;;
35330;SDS011;21441;52.190;20.910;2024-01-27T06:09:57;21.45;;;3.55;;
35330;SDS011;21441;52.190;20.910;2024-01-27T06:12:24;15.30;;;3.00;;
35330;SDS011;21441;52.190;20.910;2024-01-27T06:14:52;4.15;;;2.20;;
35330;SDS011;21441;52.190;20.910;2024-01-27T06:17:18;14.55;;;3.42;;
35330;SDS011;21441;52.190;20.910;2024-01-27T06:19:46;9.38;;;2.80;;
35330;SDS011;21441;52.190;20.910;2024-01-27T06:22:13;9.95;;;3.08;;
35330;SDS011;21441;52.190;20.910;2024-01-27T06:24:43;13.27;;;2.50;;
35330;SDS011;21441;52.190;20.910;2024-01-27T06:27:11;14.32;;;3.60;;
35330;SDS011;21441;52.190;20.910;2024-01-27T06:29:39;10.70;;;2.95;;
35330;SDS011;21441;52.190;20.910;2024-01-27T06:32:07;8.35;;;2.80;;
35330;SDS011;21441;52.190;20.910;2024-01-27T06:34:34;9.65;;;3.83;;
35330;SDS011;21441;52.190;20.910;2024-01-27T06:37:01;11.68;;;2.47;;
35330;SDS011;21441;52.190;20.910;2024-01-27T06:39:29;14.30;;;3.13;;
35330;SDS011;21441;52.190;20.910;2024-01-27T06:41:56;15.43;;;4.03;;
35330;SDS011;21441;52.190;20.910;2024-01-27T06:44:25;13.05;;;5.00;;
35330;SDS011;21441;52.190;20.910;2024-01-27T06:46:52;11.43;;;2.55;;
35330;SDS011;21441;52.190;20.910;2024-01-27T06:49:19;10.45;;;3.10;;
35330;SDS011;21441;52.190;20.910;2024-01-27T06:51:46;14.02;;;3.10;;
35330;SDS011;21441;52.190;20.910;2024-01-27T06:54:13;12.05;;;3.35;;
35330;SDS011;21441;52.190;20.910;2024-01-27T06:56:40;14.85;;;4.20;;
35330;SDS011;21441;52.190;20.910;2024-01-27T06:59:07;13.80;;;4.50;;
35330;SDS011;21441;52.190;20.910;2024-01-27T07:01:40;9.48;;;3.45;;
35330;SDS011;21441;52.190;20.910;2024-01-27T07:04:18;21.02;;;4.22;;
35330;SDS011;21441;52.190;20.910;2024-01-27T07:06:45;16.30;;;3.92;;
35330;SDS011;21441;52.190;20.910;2024-01-27T07:09:12;17.30;;;4.82;;
35330;SDS011;21441;52.190;20.910;2024-01-27T07:11:45;18.15;;;4.10;;
35330;SDS011;21441;52.190;20.910;2024-01-27T07:17:13;14.25;;;4.55;;
35330;SDS011;21441;52.190;20.910;2024-01-27T07:19:45;12.98;;;3.95;;
35330;SDS011;21441;52.190;20.910;2024-01-27T07:22:17;9.85;;;4.28;;
35330;SDS011;21441;52.190;20.910;2024-01-27T07:24:44;17.92;;;4.65;;
35330;SDS011;21441;52.190;20.910;2024-01-27T07:27:11;12.98;;;4.28;;
35330;SDS011;21441;52.190;20.910;2024-01-27T07:29:39;14.63;;;5.45;;
35330;SDS011;21441;52.190;20.910;2024-01-27T07:32:06;11.10;;;4.60;;
35330;SDS011;21441;52.190;20.910;2024-01-27T07:34:41;16.02;;;4.93;;
35330;SDS011;21441;52.190;20.910;2024-01-27T07:37:08;13.60;;;5.23;;
35330;SDS011;21441;52.190;20.910;2024-01-27T07:39:35;10.65;;;4.60;;
35330;SDS011;21441;52.190;20.910;2024-01-27T07:42:02;11.93;;;5.00;;
35330;SDS011;21441;52.190;20.910;2024-01-27T07:44:29;14.35;;;5.97;;
35330;SDS011;21441;52.190;20.910;2024-01-27T07:46:57;12.23;;;5.03;;
35330;SDS011;21441;52.190;20.910;2024-01-27T07:49:24;14.32;;;4.78;;
35330;SDS011;21441;52.190;20.910;2024-01-27T07:51:52;10.05;;;4.13;;
35330;SDS011;21441;52.190;20.910;2024-01-27T07:54:20;8.43;;;4.10;;
35330;SDS011;21441;52.190;20.910;2024-01-27T07:56:48;12.63;;;5.75;;
35330;SDS011;21441;52.190;20.910;2024-01-27T07:59:15;10.95;;;5.40;;
35330;SDS011;21441;52.190;20.910;2024-01-27T08:01:42;19.00;;;4.70;;
35330;SDS011;21441;52.190;20.910;2024-01-27T08:04:18;13.02;;;4.93;;
35330;SDS011;21441;52.190;20.910;2024-01-27T08:06:48;14.68;;;5.50;;
35330;SDS011;21441;52.190;20.910;2024-01-27T08:09:37;10.98;;;4.60;;
35330;SDS011;21441;52.190;20.910;2024-01-27T08:12:11;16.27;;;4.63;;
35330;SDS011;21441;52.190;20.910;2024-01-27T08:14:38;11.70;;;4.13;;
35330;SDS011;21441;52.190;20.910;2024-01-27T08:17:05;13.85;;;5.20;;
35330;SDS011;21441;52.190;20.910;2024-01-27T08:19:32;9.18;;;4.07;;
35330;SDS011;21441;52.190;20.910;2024-01-27T08:21:59;13.43;;;5.40;;
35330;SDS011;21441;52.190;20.910;2024-01-27T08:24:27;12.07;;;5.47;;
35330;SDS011;21441;52.190;20.910;2024-01-27T08:26:55;12.05;;;4.00;;
35330;SDS011;21441;52.190;20.910;2024-01-27T08:29:23;13.52;;;4.50;;
35330;SDS011;21441;52.190;20.910;2024-01-27T08:31:51;11.55;;;4.82;;
35330;SDS011;21441;52.190;20.910;2024-01-27T08:34:18;20.00;;;7.07;;
35330;SDS011;21441;52.190;20.910;2024-01-27T08:36:45;10.27;;;5.03;;
35330;SDS011;21441;52.190;20.910;2024-01-27T08:39:13;14.15;;;5.05;;
35330;SDS011;21441;52.190;20.910;2024-01-27T08:41:40;10.90;;;4.97;;
35330;SDS011;21441;52.190;20.910;2024-01-27T08:44:08;12.85;;;4.97;;
35330;SDS011;21441;52.190;20.910;2024-01-27T08:46:35;16.77;;;6.78;;
35330;SDS011;21441;52.190;20.910;2024-01-27T08:49:02;15.15;;;5.55;;
35330;SDS011;21441;52.190;20.910;2024-01-27T08:51:29;9.90;;;5.03;;
35330;SDS011;21441;52.190;20.910;2024-01-27T08:53:57;16.02;;;4.55;;
35330;SDS011;21441;52.190;20.910;2024-01-27T08:56:24;14.05;;;4.57;;
35330;SDS011;21441;52.190;20.910;2024-01-27T08:58:51;13.85;;;6.07;;
35330;SDS011;21441;52.190;20.910;2024-01-27T09:01:20;11.63;;;5.82;;
35330;SDS011;21441;52.190;20.910;2024-01-27T09:03:47;19.90;;;7.78;;
35330;SDS011;21441;52.190;20.910;2024-01-27T09:06:14;11.48;;;4.95;;
35330;SDS011;21441;52.190;20.910;2024-01-27T09:08:42;13.77;;;6.07;;
35330;SDS011;21441;52.190;20.910;2024-01-27T09:11:10;12.13;;;6.32;;
35330;SDS011;21441;52.190;20.910;2024-01-27T09:13:37;14.68;;;5.63;;
35330;SDS011;21441;52.190;20.910;2024-01-27T09:16:04;17.15;;;5.95;;
35330;SDS011;21441;52.190;20.910;2024-01-27T09:18:34;13.35;;;5.43;;
35330;SDS011;21441;52.190;20.910;2024-01-27T09:21:01;17.42;;;8.40;;
35330;SDS011;21441;52.190;20.910;2024-01-27T09:23:29;11.98;;;5.47;;
35330;SDS011;21441;52.190;20.910;2024-01-27T09:25:56;9.57;;;4.45;;
35330;SDS011;21441;52.190;20.910;2024-01-27T09:28:23;13.70;;;5.28;;
35330;SDS011;21441;52.190;20.910;2024-01-27T09:30:50;12.73;;;4.75;;
35330;SDS011;21441;52.190;20.910;2024-01-27T09:33:17;12.80;;;5.90;;
35330;SDS011;21441;52.190;20.910;2024-01-27T09:35:49;14.18;;;5.43;;
35330;SDS011;21441;52.190;20.910;2024-01-27T09:38:17;10.02;;;5.45;;
35330;SDS011;21441;52.190;20.910;2024-01-27T09:40:44;16.58;;;5.00;;
35330;SDS011;21441;52.190;20.910;2024-01-27T09:43:13;12.75;;;5.32;;
35330;SDS011;21441;52.190;20.910;2024-01-27T09:45:40;11.45;;;4.93;;
35330;SDS011;21441;52.190;20.910;2024-01-27T09:48:07;10.80;;;5.55;;
35330;SDS011;21441;52.190;20.910;2024-01-27T09:50:37;8.77;;;3.88;;
35330;SDS011;21441;52.190;20.910;2024-01-27T09:53:09;8.18;;;4.53;;
35330;SDS011;21441;52.190;20.910;2024-01-27T09:55:37;12.80;;;4.55;;
35330;SDS011;21441;52.190;20.910;2024-01-27T09:58:04;7.07;;;4.45;;
35330;SDS011;21441;52.190;20.910;2024-01-27T10:00:32;8.02;;;4.10;;
35330;SDS011;21441;52.190;20.910;2024-01-27T10:05:29;11.55;;;4.75;;
35330;SDS011;21441;52.190;20.910;2024-01-27T10:07:57;8.02;;;3.97;;
35330;SDS011;21441;52.190;20.910;2024-01-27T10:10:26;10.00;;;3.80;;
35330;SDS011;21441;52.190;20.910;2024-01-27T10:12:53;10.40;;;4.55;;
35330;SDS011;21441;52.190;20.910;2024-01-27T10:15:24;6.90;;;3.88;;
35330;SDS011;21441;52.190;20.910;2024-01-27T10:17:52;5.45;;;3.45;;
35330;SDS011;21441;52.190;20.910;2024-01-27T10:20:19;7.22;;;3.22;;
35330;SDS011;21441;52.190;20.910;2024-01-27T10:22:47;5.82;;;2.90;;
35330;SDS011;21441;52.190;20.910;2024-01-27T10:25:13;5.78;;;3.10;;
35330;SDS011;21441;52.190;20.910;2024-01-27T10:27:44;4.85;;;3.03;;
35330;SDS011;21441;52.190;20.910;2024-01-27T10:30:15;4.55;;;2.80;;
35330;SDS011;21441;52.190;20.910;2024-01-27T10:32:43;6.65;;;3.08;;
35330;SDS011;21441;52.190;20.910;2024-01-27T10:35:10;6.32;;;3.13;;
35330;SDS011;21441;52.190;20.910;2024-01-27T10:37:37;3.65;;;2.40;;
35330;SDS011;21441;52.190;20.910;2024-01-27T10:40:05;5.07;;;2.60;;
35330;SDS011;21441;52.190;20.910;2024-01-27T10:42:34;5.97;;;3.28;;
35330;SDS011;21441;52.190;20.910;2024-01-27T10:45:04;5.47;;;3.20;;
35330;SDS011;21441;52.190;20.910;2024-01-27T10:47:32;3.90;;;2.83;;
35330;SDS011;21441;52.190;20.910;2024-01-27T10:50:00;6.13;;;3.38;;
35330;SDS011;21441;52.190;20.910;2024-01-27T10:52:29;6.30;;;3.00;;
35330;SDS011;21441;52.190;20.910;2024-01-27T10:54:58;5.80;;;3.13;;
35330;SDS011;21441;52.190;20.910;2024-01-27T10:57:29;15.07;;;9.13;;
35330;SDS011;21441;52.190;20.910;2024-01-27T10:59:57;4.32;;;2.92;;
35330;SDS011;21441;52.190;20.910;2024-01-27T11:02:27;3.08;;;2.58;;
35330;SDS011;21441;52.190;20.910;2024-01-27T11:04:58;5.95;;;2.90;;
35330;SDS011;21441;52.190;20.910;2024-01-27T11:07:27;6.05;;;2.80;;
35330;SDS011;21441;52.190;20.910;2024-01-27T11:09:55;4.45;;;2.90;;
35330;SDS011;21441;52.190;20.910;2024-01-27T11:12:22;4.22;;;2.30;;
35330;SDS011;21441;52.190;20.910;2024-01-27T11:14:51;2.90;;;2.20;;
35330;SDS011;21441;52.190;20.910;2024-01-27T11:17:19;2.67;;;2.38;;
35330;SDS011;21441;52.190;20.910;2024-01-27T11:19:47;4.82;;;2.40;;
35330;SDS011;21441;52.190;20.910;2024-01-27T11:22:23;3.33;;;2.28;;
35330;SDS011;21441;52.190;20.910;2024-01-27T11:24:52;6.72;;;2.63;;
35330;SDS011;21441;52.190;20.910;2024-01-27T11:27:19;5.20;;;2.40;;
35330;SDS011;21441;52.190;20.910;2024-01-27T11:29:54;5.22;;;2.40;;
35330;SDS011;21441;52.190;20.910;2024-01-27T11:32:21;3.03;;;2.63;;
35330;SDS011;21441;52.190;20.910;2024-01-27T11:34:49;3.47;;;2.30;;
35330;SDS011;21441;52.190;20.910;2024-01-27T11:37:17;2.38;;;2.03;;
35330;SDS011;21441;52.190;20.910;2024-01-27T11:39:45;4.68;;;3.50;;
35330;SDS011;21441;52.190;20.910;2024-01-27T11:42:13;4.07;;;2.42;;
35330;SDS011;21441;52.190;20.910;2024-01-27T11:44:41;3.25;;;1.95;;
35330;SDS011;21441;52.190;20.910;2024-01-27T11:47:13;2.25;;;2.05;;
35330;SDS011;21441;52.190;20.910;2024-01-27T11:49:42;1.98;;;1.75;;
35330;SDS011;21441;52.190;20.910;2024-01-27T11:52:11;3.35;;;2.50;;
35330;SDS011;21441;52.190;20.910;2024-01-27T11:54:38;2.92;;;2.63;;
35330;SDS011;21441;52.190;20.910;2024-01-27T11:57:05;4.22;;;2.03;;
35330;SDS011;21441;52.190;20.910;2024-01-27T11:59:33;2.67;;;2.13;;
35330;SDS011;21441;52.190;20.910;2024-01-27T12:02:00;2.90;;;2.17;;
35330;SDS011;21441;52.190;20.910;2024-01-27T12:04:28;3.10;;;2.40;;
35330;SDS011;21441;52.190;20.910;2024-01-27T12:06:56;2.97;;;2.67;;
35330;SDS011;21441;52.190;20.910;2024-01-27T12:09:24;3.15;;;2.40;;
35330;SDS011;21441;52.190;20.910;2024-01-27T12:11:52;4.25;;;2.67;;
35330;SDS011;21441;52.190;20.910;2024-01-27T12:14:19;3.17;;;2.80;;
35330;SDS011;21441;52.190;20.910;2024-01-27T12:16:46;3.13;;;2.83;;
35330;SDS011;21441;52.190;20.910;2024-01-27T12:19:14;4.38;;;2.80;;
35330;SDS011;21441;52.190;20.910;2024-01-27T12:21:46;5.90;;;3.30;;
35330;SDS011;21441;52.190;20.910;2024-01-27T12:24:15;3.38;;;3.08;;
35330;SDS011;21441;52.190;20.910;2024-01-27T12:26:44;4.65;;;3.30;;
35330;SDS011;21441;52.190;20.910;2024-01-27T12:29:11;4.13;;;3.30;;
35330;SDS011;21441;52.190;20.910;2024-01-27T12:31:39;3.65;;;3.33;;
35330;SDS011;21441;52.190;20.910;2024-01-27T12:34:06;4.22;;;3.08;;
35330;SDS011;21441;52.190;20.910;2024-01-27T12:36:39;4.75;;;3.72;;
35330;SDS011;21441;52.190;20.910;2024-01-27T12:39:07;3.88;;;3.45;;
35330;SDS011;21441;52.190;20.910;2024-01-27T12:41:36;4.65;;;3.50;;
35330;SDS011;21441;52.190;20.910;2024-01-27T12:44:04;4.38;;;3.88;;
35330;SDS011;21441;52.190;20.910;2024-01-27T12:46:32;4.70;;;3.55;;
35330;SDS011;21441;52.190;20.910;2024-01-27T12:48:59;4.55;;;4.03;;
35330;SDS011;21441;52.190;20.910;2024-01-27T12:51:28;4.80;;;4.07;;
35330;SDS011;21441;52.190;20.910;2024-01-27T12:53:55;4.57;;;3.28;;
35330;SDS011;21441;52.190;20.910;2024-01-27T12:56:23;3.97;;;3.67;;
35330;SDS011;21441;52.190;20.910;2024-01-27T12:58:50;4.97;;;4.10;;
35330;SDS011;21441;52.190;20.910;2024-01-27T13:01:19;4.85;;;4.03;;
35330;SDS011;21441;52.190;20.910;2024-01-27T13:03:46;4.10;;;3.70;;
35330;SDS011;21441;52.190;20.910;2024-01-27T13:06:13;4.57;;;3.85;;
35330;SDS011;21441;52.190;20.910;2024-01-27T13:08:40;4.18;;;3.40;;
35330;SDS011;21441;52.190;20.910;2024-01-27T13:11:08;4.38;;;3.95;;
35330;SDS011;21441;52.190;20.910;2024-01-27T13:13:35;4.68;;;3.38;;
35330;SDS011;21441;52.190;20.910;2024-01-27T13:16:03;4.15;;;3.63;;
35330;SDS011;21441;52.190;20.910;2024-01-27T13:18:32;5.10;;;4.13;;
35330;SDS011;21441;52.190;20.910;2024-01-27T13:20:59;5.57;;;3.95;;
35330;SDS011;21441;52.190;20.910;2024-01-27T13:23:26;3.97;;;3.53;;
35330;SDS011;21441;52.190;20.910;2024-01-27T13:25:54;3.80;;;3.50;;
35330;SDS011;21441;52.190;20.910;2024-01-27T13:28:21;3.50;;;3.20;;
35330;SDS011;21441;52.190;20.910;2024-01-27T13:30:48;5.93;;;4.10;;
35330;SDS011;21441;52.190;20.910;2024-01-27T13:33:15;4.10;;;3.38;;
35330;SDS011;21441;52.190;20.910;2024-01-27T13:35:44;5.20;;;3.28;;
35330;SDS011;21441;52.190;20.910;2024-01-27T13:38:12;4.25;;;3.35;;
35330;SDS011;21441;52.190;20.910;2024-01-27T13:40:39;3.72;;;3.42;;
35330;SDS011;21441;52.190;20.910;2024-01-27T13:43:07;4.38;;;3.25;;
35330;SDS011;21441;52.190;20.910;2024-01-27T13:45:34;4.20;;;3.40;;
35330;SDS011;21441;52.190;20.910;2024-01-27T13:48:01;6.35;;;3.92;;
35330;SDS011;21441;52.190;20.910;2024-01-27T13:50:29;3.60;;;3.28;;
35330;SDS011;21441;52.190;20.910;2024-01-27T13:52:58;4.10;;;3.20;;
35330;SDS011;21441;52.190;20.910;2024-01-27T13:55:26;4.65;;;3.28;;
35330;SDS011;21441;52.190;20.910;2024-01-27T13:57:52;6.68;;;3.92;;
35330;SDS011;21441;52.190;20.910;2024-01-27T14:00:20;4.00;;;2.83;;
35330;SDS011;21441;52.190;20.910;2024-01-27T14:02:47;5.60;;;3.28;;
35330;SDS011;21441;52.190;20.910;2024-01-27T14:05:14;3.15;;;2.60;;
35330;SDS011;21441;52.190;20.910;2024-01-27T14:07:42;3.10;;;2.55;;
35330;SDS011;21441;52.190;20.910;2024-01-27T14:10:11;3.42;;;2.25;;
35330;SDS011;21441;52.190;20.910;2024-01-27T14:12:38;3.95;;;2.55;;
35330;SDS011;21441;52.190;20.910;2024-01-27T14:15:06;3.08;;;2.78;;
35330;SDS011;21441;52.190;20.910;2024-01-27T14:17:34;4.68;;;2.85;;
35330;SDS011;21441;52.190;20.910;2024-01-27T14:20:02;4.22;;;2.80;;
35330;SDS011;21441;52.190;20.910;2024-01-27T14:22:30;3.00;;;2.70;;
35330;SDS011;21441;52.190;20.910;2024-01-27T14:24:58;3.03;;;2.55;;
35330;SDS011;21441;52.190;20.910;2024-01-27T14:27:26;3.47;;;2.65;;
35330;SDS011;21441;52.190;20.910;2024-01-27T14:29:54;3.47;;;2.80;;
35330;SDS011;21441;52.190;20.910;2024-01-27T14:32:22;4.63;;;2.80;;
35330;SDS011;21441;52.190;20.910;2024-01-27T14:34:49;3.45;;;2.95;;
35330;SDS011;21441;52.190;20.910;2024-01-27T14:37:17;4.68;;;2.65;;